Time;durP1;ratioP1;P1;durP2;ratioP2;P2;SDS_P1;SDS_P2;PMS_P1;PMS_P2;Temp;Humidity;BMP_temperature;BMP_pressure;BME280_temperature;BME280_humidity;BME280_pressure;Samples;Min_cycle;Max_cycle;Signal;HPM_P1;HPM_P2
2021/04/18 00:00:53;;;;;;;10.20;7.20;;;6.40;99.90;;;;;;5071708;28;20415;-64
2021/04/18 00:03:18;;;;;;;9.73;6.53;;;6.30;99.90;;;;;;5071806;28;20380;-58
2021/04/18 00:05:44;;;;;;;12.00;7.00;;;6.30;99.90;;;;;;5071492;28;20403;-64
2021/04/18 00:08:10;;;;;;;11.03;6.90;;;6.20;99.90;;;;;;5071828;28;20383;-64
2021/04/18 00:10:37;;;;;;;10.63;6.80;;;6.20;99.90;;;;;;5070981;28;20386;-64
2021/04/18 00:13:03;;;;;;;11.27;7.10;;;6.20;99.90;;;;;;5071947;28;20441;-65
2021/04/18 00:15:30;;;;;;;10.38;7.10;;;6.20;99.90;;;;;;5070933;28;20429;-64
2021/04/18 00:17:55;;;;;;;9.27;6.47;;;6.40;99.90;;;;;;5072125;28;20375;-65
2021/04/18 00:20:21;;;;;;;9.40;6.33;;;6.60;99.90;;;;;;5071075;28;20380;-58
2021/04/18 00:22:47;;;;;;;9.55;6.20;;;6.60;99.90;;;;;;5071158;28;20453;-64
2021/04/18 00:25:18;;;;;;;9.57;6.60;;;6.80;99.90;;;;;;5071778;28;20858;-64
2021/04/18 00:27:45;;;;;;;10.82;6.22;;;6.80;99.90;;;;;;5071421;28;20384;-65
2021/04/18 00:30:14;;;;;;;10.27;6.93;;;6.90;99.90;;;;;;5071994;28;20384;-65
2021/04/18 00:32:40;;;;;;;11.02;6.13;;;6.90;99.90;;;;;;5070577;28;20420;-64
2021/04/18 00:35:07;;;;;;;9.02;6.13;;;6.90;99.90;;;;;;5053456;28;20402;-65
2021/04/18 00:37:33;;;;;;;12.05;6.88;;;6.80;99.90;;;;;;5070397;28;20731;-66
2021/04/18 00:39:59;;;;;;;9.30;6.30;;;6.80;99.90;;;;;;5071746;28;20947;-65
2021/04/18 00:42:25;;;;;;;9.63;5.97;;;6.80;99.90;;;;;;5070700;28;20718;-66
2021/04/18 00:44:51;;;;;;;9.55;5.50;;;6.80;99.90;;;;;;5070994;28;20399;-65
2021/04/18 00:47:17;;;;;;;9.80;5.45;;;6.60;99.90;;;;;;5071548;28;20833;-65
2021/04/18 00:49:46;;;;;;;11.20;6.07;;;6.50;99.90;;;;;;5070303;28;20433;-65
2021/04/18 00:52:12;;;;;;;8.70;5.30;;;6.50;99.90;;;;;;5071110;28;20480;-65
2021/04/18 00:54:38;;;;;;;9.85;5.70;;;6.60;99.90;;;;;;5070373;28;20892;-65
2021/04/18 00:57:07;;;;;;;10.15;5.95;;;6.50;99.90;;;;;;5070878;28;20865;-65
2021/04/18 00:59:32;;;;;;;9.68;5.53;;;6.60;99.90;;;;;;5070227;28;20371;-65
2021/04/18 01:01:59;;;;;;;11.02;6.25;;;6.60;99.90;;;;;;5070909;28;20445;-65
2021/04/18 01:04:25;;;;;;;8.43;5.83;;;6.50;99.90;;;;;;5070243;28;20374;-64
2021/04/18 01:06:50;;;;;;;10.00;5.90;;;6.50;99.90;;;;;;5070168;28;20383;-65
2021/04/18 01:09:16;;;;;;;10.55;6.45;;;6.50;99.90;;;;;;5070873;28;20384;-65
2021/04/18 01:11:42;;;;;;;11.87;6.37;;;6.50;99.90;;;;;;5069647;28;21117;-65
2021/04/18 01:14:08;;;;;;;10.80;6.20;;;6.60;99.90;;;;;;5070665;28;20451;-65
2021/04/18 01:16:33;;;;;;;11.80;6.57;;;6.70;99.90;;;;;;5069907;28;20387;-65
2021/04/18 01:18:59;;;;;;;11.03;6.23;;;6.70;99.90;;;;;;5070544;28;20872;-64
2021/04/18 01:21:25;;;;;;;11.10;6.70;;;6.70;99.90;;;;;;5070173;28;20379;-65
2021/04/18 01:23:51;;;;;;;10.20;6.78;;;6.80;99.90;;;;;;5070682;28;20506;-65
2021/04/18 01:26:16;;;;;;;10.35;6.85;;;6.70;99.90;;;;;;5071049;28;20428;-65
2021/04/18 01:28:42;;;;;;;9.67;6.67;;;6.80;99.90;;;;;;5051740;28;20376;-66
2021/04/18 01:31:08;;;;;;;11.73;6.90;;;6.70;99.90;;;;;;5052661;28;20407;-65
2021/04/18 01:33:34;;;;;;;11.48;7.05;;;6.80;99.90;;;;;;5069115;28;20421;-64
2021/04/18 01:36:05;;;;;;;10.70;6.60;;;6.80;99.90;;;;;;5070469;28;20368;-65
2021/04/18 01:38:31;;;;;;;11.50;6.90;;;6.70;99.90;;;;;;5069962;28;20367;-66
2021/04/18 01:40:58;;;;;;;11.77;6.83;;;6.80;99.90;;;;;;5067981;28;20453;-65
2021/04/18 01:43:24;;;;;;;10.40;6.97;;;6.80;99.90;;;;;;5069158;28;20770;-64
2021/04/18 01:45:51;;;;;;;13.07;7.00;;;6.80;99.90;;;;;;5068144;28;20420;-65
2021/04/18 01:48:19;;;;;;;10.70;7.20;;;6.70;99.90;;;;;;5069980;28;20378;-65
2021/04/18 01:50:50;;;;;;;10.93;7.30;;;6.50;99.90;;;;;;5069266;28;20428;-65
2021/04/18 01:53:16;;;;;;;11.38;7.40;;;6.70;99.90;;;;;;5068595;28;20391;-65
2021/04/18 01:55:42;;;;;;;11.70;7.60;;;6.60;99.90;;;;;;5069133;28;21115;-65
2021/04/18 01:58:08;;;;;;;11.73;7.80;;;6.50;99.90;;;;;;5068163;28;20391;-64
2021/04/18 02:00:35;;;;;;;12.80;8.20;;;6.40;99.90;;;;;;5069129;28;20382;-63
2021/04/18 02:03:01;;;;;;;13.68;9.07;;;6.30;99.90;;;;;;5070073;28;20379;-66
2021/04/18 02:05:31;;;;;;;14.68;10.10;;;6.20;99.90;;;;;;5067259;28;20876;-65
2021/04/18 02:07:57;;;;;;;12.85;9.20;;;6.20;99.90;;;;;;5069284;28;20842;-65
2021/04/18 02:10:23;;;;;;;15.00;10.23;;;6.30;99.90;;;;;;5069329;28;20384;-59
2021/04/18 02:12:49;;;;;;;13.10;9.77;;;6.40;99.90;;;;;;5067762;28;20940;-65
2021/04/18 02:15:15;;;;;;;15.30;10.02;;;6.30;99.90;;;;;;5069671;28;20379;-62
2021/04/18 02:17:40;;;;;;;14.30;10.50;;;6.20;99.90;;;;;;5069197;28;20904;-65
2021/04/18 02:20:07;;;;;;;15.33;9.70;;;6.20;99.90;;;;;;5067810;28;20423;-65
2021/04/18 02:22:34;;;;;;;14.35;10.18;;;6.20;99.90;;;;;;5068328;28;20403;-61
2021/04/18 02:25:01;;;;;;;13.77;10.10;;;6.10;99.90;;;;;;5067912;28;20396;-65
2021/04/18 02:27:27;;;;;;;14.05;10.30;;;6.10;99.90;;;;;;5068707;28;20387;-64
2021/04/18 02:29:56;;;;;;;14.43;9.50;;;6.10;99.90;;;;;;5051594;28;20765;-64
2021/04/18 02:32:22;;;;;;;14.40;9.65;;;6.10;99.90;;;;;;5067222;28;20418;-59
2021/04/18 02:34:49;;;;;;;14.60;9.25;;;6.00;99.90;;;;;;5068869;28;20479;-65
2021/04/18 02:37:15;;;;;;;13.85;9.45;;;6.00;99.90;;;;;;5068679;28;20396;-63
2021/04/18 02:39:44;;;;;;;13.93;8.50;;;6.20;99.90;;;;;;5067025;28;20380;-65
2021/04/18 02:42:10;;;;;;;11.93;7.90;;;6.20;99.90;;;;;;5049746;28;20803;-65
2021/04/18 02:44:36;;;;;;;12.60;8.38;;;6.30;99.90;;;;;;5063844;28;20380;-65
2021/04/18 02:47:02;;;;;;;12.77;8.80;;;6.30;99.90;;;;;;5067784;28;20462;-65
2021/04/18 02:49:28;;;;;;;13.23;8.45;;;6.40;99.90;;;;;;5068073;28;20383;-64
2021/04/18 02:51:54;;;;;;;12.52;8.25;;;6.40;99.90;;;;;;5068070;28;20412;-65
2021/04/18 02:54:19;;;;;;;13.27;8.40;;;6.40;99.90;;;;;;5069240;28;20382;-65
2021/04/18 02:56:45;;;;;;;11.70;7.95;;;6.50;99.90;;;;;;5068362;28;20404;-65
2021/04/18 02:59:11;;;;;;;13.43;8.40;;;6.50;99.90;;;;;;5069198;28;20514;-64
2021/04/18 03:01:37;;;;;;;12.98;8.10;;;6.50;99.90;;;;;;5069007;28;20944;-65
2021/04/18 03:04:04;;;;;;;12.77;8.60;;;6.40;99.90;;;;;;5069484;28;20418;-65
2021/04/18 03:06:30;;;;;;;12.82;8.45;;;6.50;99.90;;;;;;5068216;28;20411;-65
2021/04/18 03:08:55;;;;;;;12.35;8.10;;;6.50;99.90;;;;;;5068808;28;20408;-66
2021/04/18 03:11:22;;;;;;;11.13;7.87;;;6.40;99.90;;;;;;5069190;28;20826;-65
2021/04/18 03:13:47;;;;;;;13.68;9.02;;;6.50;99.90;;;;;;5068665;28;20389;-65
2021/04/18 03:16:14;;;;;;;13.82;9.02;;;6.50;99.90;;;;;;5069335;28;20472;-65
2021/04/18 03:18:40;;;;;;;13.02;8.43;;;6.60;99.90;;;;;;5068251;28;20386;-65
2021/04/18 03:21:06;;;;;;;14.47;8.97;;;6.60;99.90;;;;;;5068921;28;20380;-65
2021/04/18 03:23:32;;;;;;;13.10;8.47;;;6.50;99.90;;;;;;5068548;28;20738;-63
2021/04/18 03:25:57;;;;;;;13.73;8.55;;;6.60;99.90;;;;;;5050996;28;21166;-65
2021/04/18 03:28:23;;;;;;;13.40;8.63;;;6.70;99.90;;;;;;5069077;28;20376;-58
2021/04/18 03:30:49;;;;;;;13.95;8.45;;;6.60;99.90;;;;;;5068529;28;20474;-64
2021/04/18 03:33:15;;;;;;;13.15;8.52;;;6.70;99.90;;;;;;5069523;28;20916;-65
2021/04/18 03:35:41;;;;;;;13.55;9.00;;;6.70;99.90;;;;;;5071457;28;20489;-63
2021/04/18 03:38:09;;;;;;;14.32;9.13;;;6.60;99.90;;;;;;5072550;28;20406;-65
2021/04/18 03:40:35;;;;;;;13.87;8.40;;;6.60;99.90;;;;;;5071813;28;20375;-65
2021/04/18 03:43:01;;;;;;;14.05;9.00;;;6.80;99.90;;;;;;5072626;28;20398;-61
2021/04/18 03:45:27;;;;;;;13.73;8.60;;;6.70;99.90;;;;;;5071999;28;20830;-59
2021/04/18 03:47:52;;;;;;;14.73;8.82;;;6.70;99.90;;;;;;5072404;28;20857;-65
2021/04/18 03:50:18;;;;;;;12.70;8.77;;;6.60;99.90;;;;;;5072457;28;20457;-64
2021/04/18 03:52:44;;;;;;;14.23;8.82;;;6.60;99.90;;;;;;5071245;28;20416;-65
2021/04/18 03:55:11;;;;;;;16.25;9.82;;;6.40;99.90;;;;;;5054381;28;20482;-65
2021/04/18 03:57:37;;;;;;;15.57;10.30;;;6.30;99.90;;;;;;5071581;28;20462;-65
2021/04/18 04:00:05;;;;;;;16.73;9.73;;;6.30;99.90;;;;;;5072080;28;20788;-65
2021/04/18 04:02:31;;;;;;;14.60;9.75;;;6.30;99.90;;;;;;5053492;28;20470;-65
2021/04/18 04:04:56;;;;;;;14.37;9.10;;;6.30;99.90;;;;;;5072244;28;20462;-65
2021/04/18 04:07:22;;;;;;;13.00;8.50;;;6.30;99.90;;;;;;5072173;28;20383;-65
2021/04/18 04:09:47;;;;;;;15.33;9.17;;;6.40;99.90;;;;;;5071105;28;20387;-66
2021/04/18 04:12:13;;;;;;;13.85;9.00;;;6.40;99.90;;;;;;5072285;28;20745;-65
2021/04/18 04:14:39;;;;;;;15.17;9.00;;;6.40;99.90;;;;;;5071258;28;20388;-66
2021/04/18 04:17:05;;;;;;;14.85;8.63;;;6.30;99.90;;;;;;5072384;28;20729;-65
2021/04/18 04:19:30;;;;;;;15.05;9.10;;;6.20;99.90;;;;;;5071312;28;20363;-65
2021/04/18 04:21:56;;;;;;;13.77;8.50;;;6.30;99.90;;;;;;5071605;28;20433;-65
2021/04/18 04:24:21;;;;;;;13.40;9.07;;;6.40;99.90;;;;;;5071929;28;20469;-65
2021/04/18 04:26:47;;;;;;;15.47;8.97;;;6.40;99.90;;;;;;5071285;28;20405;-65
2021/04/18 04:29:13;;;;;;;16.58;9.10;;;6.40;99.90;;;;;;5071838;28;20470;-65
2021/04/18 04:31:38;;;;;;;16.17;10.00;;;6.50;99.90;;;;;;5070591;28;20403;-64
2021/04/18 04:34:04;;;;;;;16.20;10.02;;;6.50;99.90;;;;;;5071547;28;20531;-65
2021/04/18 04:36:30;;;;;;;15.33;9.70;;;6.60;99.90;;;;;;5070778;28;20363;-66
2021/04/18 04:38:56;;;;;;;14.50;9.40;;;7.80;99.90;;;;;;5071403;28;20458;-65
2021/04/18 04:41:22;;;;;;;14.07;9.30;;;6.60;99.90;;;;;;5071957;28;20458;-66
2021/04/18 04:43:48;;;;;;;14.65;9.85;;;6.60;99.90;;;;;;5070315;28;20515;-65
2021/04/18 04:46:14;;;;;;;15.83;9.30;;;6.60;99.90;;;;;;5070759;28;20402;-66
2021/04/18 04:48:41;;;;;;;15.13;9.80;;;6.70;99.90;;;;;;5070627;28;20367;-66
2021/04/18 04:51:07;;;;;;;16.75;9.40;;;6.60;99.90;;;;;;5071140;28;20408;-65
2021/04/18 04:53:33;;;;;;;14.98;9.45;;;6.50;99.90;;;;;;5068984;28;20421;-66
2021/04/18 04:55:59;;;;;;;14.10;8.70;;;6.50;99.90;;;;;;5071211;28;20396;-66
2021/04/18 04:58:24;;;;;;;14.60;9.60;;;6.40;99.90;;;;;;5071023;28;20368;-61
2021/04/18 05:00:51;;;;;;;15.88;9.85;;;6.40;99.90;;;;;;5068520;28;20427;-65
2021/04/18 05:03:17;;;;;;;14.85;9.52;;;6.40;99.90;;;;;;5071196;28;20376;-65
2021/04/18 05:05:43;;;;;;;13.50;8.83;;;6.60;99.90;;;;;;5070370;28;20376;-65
2021/04/18 05:08:08;;;;;;;13.18;9.10;;;6.60;99.90;;;;;;5068775;28;20761;-67
2021/04/18 05:10:34;;;;;;;15.13;9.60;;;6.70;99.90;;;;;;5070087;28;20385;-67
2021/04/18 05:12:59;;;;;;;14.43;9.30;;;6.70;99.90;;;;;;5071080;28;20415;-66
2021/04/18 05:15:25;;;;;;;14.13;9.40;;;7.00;99.90;;;;;;5068817;28;20402;-58
2021/04/18 05:17:51;;;;;;;14.48;9.13;;;6.80;99.90;;;;;;5069431;28;20392;-65
2021/04/18 05:20:18;;;;;;;15.20;9.70;;;6.70;99.90;;;;;;5069703;28;20421;-65
2021/04/18 05:22:44;;;;;;;14.60;9.07;;;6.60;99.90;;;;;;5068300;28;20399;-65
2021/04/18 05:25:11;;;;;;;13.30;9.20;;;6.60;99.90;;;;;;5070575;28;20407;-65
2021/04/18 05:27:37;;;;;;;15.50;9.23;;;6.60;99.90;;;;;;5068114;28;20410;-65
2021/04/18 05:30:05;;;;;;;16.33;9.52;;;6.60;99.90;;;;;;5070536;28;20408;-65
2021/04/18 05:32:31;;;;;;;15.35;9.90;;;6.60;99.90;;;;;;5067471;28;20873;-65
2021/04/18 05:34:57;;;;;;;16.08;9.63;;;6.70;99.90;;;;;;5070284;28;20400;-64
2021/04/18 05:37:23;;;;;;;13.57;8.80;;;6.60;99.90;;;;;;5069591;28;20388;-65
2021/04/18 05:39:48;;;;;;;14.77;9.30;;;6.50;99.90;;;;;;5068845;28;20481;-66
2021/04/18 05:42:14;;;;;;;13.90;9.10;;;6.50;99.90;;;;;;5070243;28;20403;-66
2021/04/18 05:44:39;;;;;;;15.17;9.80;;;6.50;99.90;;;;;;5068793;28;20509;-65
2021/04/18 05:47:05;;;;;;;16.38;10.10;;;6.50;99.90;;;;;;5069258;28;20392;-65
2021/04/18 05:49:31;;;;;;;17.33;9.73;;;6.50;99.90;;;;;;5051681;28;20380;-64
2021/04/18 05:51:56;;;;;;;16.55;9.40;;;6.60;99.90;;;;;;5067233;28;20408;-61
2021/04/18 05:54:22;;;;;;;16.20;9.97;;;6.60;99.90;;;;;;5064205;28;20403;-66
2021/04/18 05:56:48;;;;;;;12.88;9.02;;;6.70;99.90;;;;;;5068446;28;21010;-65
2021/04/18 05:59:14;;;;;;;16.53;9.43;;;6.90;99.90;;;;;;5068668;28;20392;-64
2021/04/18 06:01:39;;;;;;;15.03;9.17;;;6.90;99.90;;;;;;5067047;28;20395;-65
2021/04/18 06:04:05;;;;;;;13.10;9.10;;;7.00;99.90;;;;;;5069490;28;20830;-65
2021/04/18 06:06:31;;;;;;;14.35;9.55;;;6.80;99.90;;;;;;5067301;28;20387;-65
2021/04/18 06:08:57;;;;;;;15.88;9.30;;;6.70;99.90;;;;;;5068653;28;20780;-66
2021/04/18 06:11:22;;;;;;;15.70;9.90;;;6.90;99.90;;;;;;5067472;28;20423;-66
2021/04/18 06:13:49;;;;;;;14.45;9.63;;;6.90;99.90;;;;;;5068857;28;20535;-65
2021/04/18 06:16:15;;;;;;;16.17;10.68;;;6.90;99.90;;;;;;5067623;28;20468;-66
2021/04/18 06:18:41;;;;;;;15.48;9.80;;;7.00;99.90;;;;;;5068495;28;20412;-66
2021/04/18 06:21:06;;;;;;;13.95;9.60;;;7.10;99.90;;;;;;5069840;28;20415;-63
2021/04/18 06:23:33;;;;;;;15.67;9.53;;;7.10;99.90;;;;;;5066530;28;20436;-65
2021/04/18 06:25:58;;;;;;;16.27;9.93;;;7.00;99.90;;;;;;5069701;28;20422;-65
2021/04/18 06:28:24;;;;;;;14.30;9.57;;;7.00;99.90;;;;;;5069642;28;20868;-68
2021/04/18 06:30:50;;;;;;;14.73;9.35;;;7.10;99.90;;;;;;5067923;28;20411;-65
2021/04/18 06:33:16;;;;;;;15.10;9.50;;;7.10;99.90;;;;;;5069088;28;20853;-65
2021/04/18 06:35:42;;;;;;;14.53;9.80;;;7.30;99.90;;;;;;5068190;28;20404;-65
2021/04/18 06:38:09;;;;;;;14.20;9.13;;;7.30;99.90;;;;;;5069239;28;20433;-67
2021/04/18 06:40:35;;;;;;;15.93;8.87;;;7.50;99.90;;;;;;5068051;28;20387;-67
2021/04/18 06:43:06;;;;;;;16.17;9.40;;;7.40;99.90;;;;;;5069103;28;20461;-68
2021/04/18 06:45:32;;;;;;;15.07;10.00;;;7.40;99.90;;;;;;5065816;28;20849;-65
2021/04/18 06:47:59;;;;;;;15.90;9.57;;;7.60;99.90;;;;;;5068593;28;20380;-65
2021/04/18 06:50:25;;;;;;;16.13;9.73;;;7.90;99.90;;;;;;5068954;28;20506;-67
2021/04/18 06:52:50;;;;;;;16.00;10.17;;;7.60;99.90;;;;;;5067911;28;20510;-65
2021/04/18 06:55:17;;;;;;;14.93;9.77;;;7.70;99.90;;;;;;5068687;28;20865;-64
2021/04/18 06:57:44;;;;;;;15.35;9.88;;;7.90;99.90;;;;;;5068175;28;20384;-68
2021/04/18 07:00:11;;;;;;;15.85;10.07;;;8.10;99.90;;;;;;5066033;28;20387;-68
2021/04/18 07:02:38;;;;;;;14.95;9.70;;;8.30;99.90;;;;;;5060643;28;20482;-67
2021/04/18 07:05:06;;;;;;;15.70;10.20;;;8.30;99.90;;;;;;5068795;28;20447;-67
2021/04/18 07:07:36;;;;;;;15.57;9.93;;;8.30;99.90;;;;;;5065809;28;20462;-65
2021/04/18 07:10:03;;;;;;;14.77;9.70;;;8.10;99.90;;;;;;5062193;28;20429;-69
2021/04/18 07:12:33;;;;;;;15.30;9.77;;;8.00;99.90;;;;;;5072148;28;20745;-61
2021/04/18 07:14:59;;;;;;;15.82;9.95;;;8.20;99.90;;;;;;5072702;28;20383;-68
2021/04/18 07:17:25;;;;;;;14.50;9.50;;;8.30;99.90;;;;;;5072681;28;20445;-68
2021/04/18 07:20:10;;;;;;;14.77;9.40;;;8.40;99.90;;;;;;5071332;28;20919;-69
2021/04/18 07:22:36;;;;;;;14.63;9.30;;;8.30;99.90;;;;;;5060420;28;20731;-68
2021/04/18 07:25:03;;;;;;;15.47;9.60;;;8.60;99.90;;;;;;5071951;28;20382;-69
2021/04/18 07:27:46;;;;;;;16.13;10.40;;;8.70;99.90;;;;;;5071982;28;20950;-61
2021/04/18 07:30:18;;;;;;;16.43;9.43;;;8.60;99.90;;;;;;5071697;28;20721;-69
2021/04/18 07:32:44;;;;;;;17.50;10.20;;;8.70;99.90;;;;;;5071170;28;20776;-68
2021/04/18 07:35:37;;;;;;;15.27;9.18;;;8.80;99.90;;;;;;5071875;28;20392;-69
2021/04/18 07:38:25;;;;;;;15.40;10.02;;;8.80;99.90;;;;;;5071735;28;20795;-67
2021/04/18 07:41:15;;;;;;;16.88;9.75;;;8.50;99.90;;;;;;5068955;28;20999;-69
2021/04/18 07:43:43;;;;;;;16.25;9.35;;;8.60;99.90;;;;;;5069899;28;20403;-66
2021/04/18 07:46:09;;;;;;;15.33;9.27;;;8.50;99.90;;;;;;5062368;28;20765;-68
2021/04/18 07:48:35;;;;;;;16.65;9.25;;;8.70;99.90;;;;;;5070840;28;20401;-69
2021/04/18 07:51:01;;;;;;;15.10;9.30;;;9.00;99.90;;;;;;5071972;28;20406;-68
2021/04/18 07:53:27;;;;;;;16.20;9.30;;;9.00;99.90;;;;;;5072094;28;20398;-67
2021/04/18 07:55:53;;;;;;;17.33;9.30;;;9.00;99.90;;;;;;5070868;28;20399;-69
2021/04/18 07:58:18;;;;;;;16.95;10.02;;;8.70;99.90;;;;;;5072083;28;20376;-68
2021/04/18 08:00:44;;;;;;;17.98;9.77;;;8.50;99.90;;;;;;5071370;28;20376;-69
2021/04/18 08:03:14;;;;;;;15.57;9.30;;;8.60;99.90;;;;;;5057009;28;20396;-69
2021/04/18 08:05:39;;;;;;;15.93;8.77;;;8.70;99.90;;;;;;5051329;28;20453;-69
2021/04/18 08:08:15;;;;;;;16.00;9.75;;;8.70;99.90;;;;;;5052150;28;20381;-69
2021/04/18 08:10:46;;;;;;;18.60;10.10;;;8.70;99.90;;;;;;5051473;28;20382;-68
2021/04/18 08:13:21;;;;;;;17.08;9.95;;;8.50;99.90;;;;;;5052094;28;20859;-68
2021/04/18 08:15:52;;;;;;;16.67;9.88;;;8.40;99.90;;;;;;5051280;28;20384;-72
2021/04/18 08:18:37;;;;;;;17.85;9.18;;;8.60;99.90;;;;;;5052435;28;20447;-68
2021/04/18 08:21:22;;;;;;;15.30;9.50;;;8.60;99.90;;;;;;5050193;28;20386;-67
2021/04/18 08:23:48;;;;;;;16.50;9.10;;;8.80;99.90;;;;;;5069185;28;20482;-69
2021/04/18 08:26:15;;;;;;;16.17;9.30;;;9.10;99.90;;;;;;5071808;28;20384;-69
2021/04/18 08:28:53;;;;;;;15.20;8.70;;;9.10;99.90;;;;;;5050945;28;20402;-69
2021/04/18 08:31:29;;;;;;;12.50;8.17;;;9.20;99.90;;;;;;5071560;28;20415;-69
2021/04/18 08:34:00;;;;;;;18.58;8.82;;;9.30;99.90;;;;;;5069086;28;20524;-69
2021/04/18 08:36:31;;;;;;;15.85;9.57;;;9.40;99.90;;;;;;5071650;28;20841;-70
2021/04/18 08:39:00;;;;;;;14.68;8.70;;;9.70;99.90;;;;;;5068934;28;20943;-69
2021/04/18 08:41:42;;;;;;;14.93;8.98;;;10.00;99.90;;;;;;5071102;28;20861;-69
2021/04/18 08:44:21;;;;;;;16.40;9.00;;;10.20;99.90;;;;;;5071524;28;20986;-70
2021/04/18 08:46:49;;;;;;;13.50;8.40;;;10.20;99.90;;;;;;5068719;28;20411;-69
2021/04/18 08:49:34;;;;;;;14.50;8.30;;;10.30;99.90;;;;;;5071116;28;20533;-67
2021/04/18 08:52:05;;;;;;;15.63;8.07;;;11.00;99.90;;;;;;5069831;28;20493;-60
2021/04/18 08:54:36;;;;;;;12.45;8.40;;;11.40;99.90;;;;;;5069833;28;20446;-56
2021/04/18 08:57:10;;;;;;;14.15;8.13;;;11.40;99.90;;;;;;5069563;28;20414;-62
2021/04/18 08:59:36;;;;;;;12.57;8.45;;;11.50;99.90;;;;;;5070119;28;20433;-60
2021/04/18 09:02:08;;;;;;;17.67;8.60;;;11.70;99.90;;;;;;5050984;28;20915;-61
2021/04/18 09:04:40;;;;;;;12.82;8.23;;;12.10;99.90;;;;;;5070392;28;20380;-56
2021/04/18 09:07:08;;;;;;;13.90;8.70;;;12.70;99.90;;;;;;5068917;28;20388;-63
2021/04/18 09:09:35;;;;;;;14.07;8.32;;;13.00;99.90;;;;;;5070330;28;20447;-56
2021/04/18 09:12:01;;;;;;;12.95;9.00;;;13.00;99.90;;;;;;5070037;28;20506;-62
2021/04/18 09:14:29;;;;;;;13.32;8.57;;;13.90;99.40;;;;;;5069680;28;20391;-60
2021/04/18 09:17:13;;;;;;;16.10;9.57;;;14.50;97.80;;;;;;5069284;28;20387;-59
2021/04/18 09:19:41;;;;;;;14.40;9.03;;;14.90;96.00;;;;;;5068128;28;20441;-62
2021/04/18 09:22:16;;;;;;;13.85;9.77;;;15.40;94.60;;;;;;5070559;28;20419;-63
2021/04/18 09:24:57;;;;;;;13.13;8.60;;;15.40;92.70;;;;;;5068230;28;20393;-62
2021/04/18 09:27:25;;;;;;;13.43;9.15;;;15.40;92.50;;;;;;5070341;28;20372;-64
2021/04/18 09:30:18;;;;;;;12.75;9.10;;;15.20;92.90;;;;;;5067828;28;20892;-64
2021/04/18 09:32:47;;;;;;;15.50;9.60;;;13.80;94.50;;;;;;5060292;28;20411;-63
2021/04/18 09:35:19;;;;;;;14.38;9.30;;;12.30;96.80;;;;;;5069305;28;20403;-61
2021/04/18 09:37:51;;;;;;;13.63;9.40;;;11.70;99.20;;;;;;5063551;28;20406;-60
2021/04/18 09:40:18;;;;;;;15.15;9.23;;;11.50;99.90;;;;;;5068302;28;20411;-61
2021/04/18 09:42:49;;;;;;;13.23;9.25;;;11.60;99.90;;;;;;5068634;28;20396;-60
2021/04/18 09:45:22;;;;;;;15.43;9.65;;;12.00;99.80;;;;;;5068856;28;20380;-60
2021/04/18 09:47:50;;;;;;;17.20;10.43;;;11.60;99.90;;;;;;5067139;28;20390;-61
2021/04/18 09:50:25;;;;;;;15.38;10.07;;;11.50;99.90;;;;;;5069364;28;20460;-61
2021/04/18 09:52:51;;;;;;;14.80;9.60;;;11.70;99.90;;;;;;5065709;28;20411;-66
2021/04/18 09:55:23;;;;;;;14.85;8.93;;;11.80;99.90;;;;;;5068157;28;20861;-54
2021/04/18 09:57:57;;;;;;;11.38;7.45;;;11.90;99.90;;;;;;5049487;28;20785;-54
2021/04/18 10:00:23;;;;;;;14.05;8.68;;;12.30;99.90;;;;;;5069389;28;20923;-57
2021/04/18 10:03:29;;;;;;;13.67;9.20;;;12.50;99.10;;;;;;5066623;28;20415;-55
2021/04/18 10:05:59;;;;;;;14.90;8.73;;;12.30;99.40;;;;;;5067151;28;20503;-60
2021/04/18 10:08:27;;;;;;;13.27;8.90;;;12.30;99.40;;;;;;5069622;28;20430;-59
2021/04/18 10:11:14;;;;;;;15.43;9.30;;;12.30;99.40;;;;;;5050372;28;20472;-60
2021/04/18 10:13:54;;;;;;;13.60;8.40;;;12.40;99.20;;;;;;5068611;28;20374;-59
2021/04/18 10:16:42;;;;;;;12.50;8.60;;;12.20;99.20;;;;;;5068567;28;20407;-59
2021/04/18 10:19:24;;;;;;;13.70;9.20;;;12.00;99.00;;;;;;5069072;28;20891;-59
2021/04/18 10:22:05;;;;;;;14.60;9.52;;;11.40;99.90;;;;;;5066802;28;20578;-61
2021/04/18 10:24:34;;;;;;;17.10;9.60;;;11.30;99.90;;;;;;5068444;28;20468;-61
2021/04/18 10:27:02;;;;;;;14.93;9.25;;;11.30;99.90;;;;;;5068061;28;20407;-61
2021/04/18 10:29:29;;;;;;;14.32;8.98;;;11.40;99.90;;;;;;5067607;28;20392;-61
2021/04/18 10:31:55;;;;;;;14.00;9.25;;;11.40;99.90;;;;;;5068180;28;20556;-59
2021/04/18 10:34:21;;;;;;;13.55;9.02;;;11.50;99.90;;;;;;5067673;28;20403;-59
2021/04/18 10:36:49;;;;;;;14.65;9.25;;;12.00;99.90;;;;;;5067825;28;20390;-69
2021/04/18 10:39:15;;;;;;;15.40;9.10;;;12.10;99.80;;;;;;5066921;28;20403;-70
2021/04/18 10:41:44;;;;;;;13.80;9.48;;;12.10;99.90;;;;;;5066464;28;20396;-69
2021/04/18 10:44:15;;;;;;;14.00;9.20;;;12.10;99.90;;;;;;5070456;28;20496;-68
2021/04/18 10:46:45;;;;;;;13.40;8.50;;;12.20;99.90;;;;;;5072820;28;20368;-69
2021/04/18 10:49:11;;;;;;;12.93;8.55;;;12.50;99.90;;;;;;5071550;28;20418;-69
2021/04/18 10:51:37;;;;;;;14.35;9.07;;;12.70;98.80;;;;;;5070943;28;20411;-62
2021/04/18 10:54:04;;;;;;;12.80;8.75;;;12.70;98.90;;;;;;5071911;28;20445;-69
2021/04/18 10:56:31;;;;;;;15.80;9.23;;;12.90;98.20;;;;;;5071535;28;20403;-69
2021/04/18 10:58:58;;;;;;;14.97;8.30;;;12.00;99.30;;;;;;5072786;28;20376;-71
2021/04/18 11:01:24;;;;;;;13.40;8.70;;;12.10;99.50;;;;;;5073185;28;20475;-69
2021/04/18 11:03:50;;;;;;;14.00;8.80;;;12.10;99.90;;;;;;5070609;28;20395;-72
2021/04/18 11:06:16;;;;;;;12.02;7.55;;;12.40;99.80;;;;;;5038760;28;20392;-70
2021/04/18 11:08:41;;;;;;;13.73;9.17;;;12.40;99.20;;;;;;5071113;28;20932;-71
2021/04/18 11:11:09;;;;;;;13.63;8.10;;;12.50;98.50;;;;;;5071962;28;20840;-69
2021/04/18 11:13:35;;;;;;;12.90;8.10;;;12.30;98.70;;;;;;5052934;28;20478;-62
2021/04/18 11:16:00;;;;;;;14.82;7.60;;;12.20;98.60;;;;;;5072012;28;20921;-69
2021/04/18 11:18:26;;;;;;;13.07;7.90;;;12.00;99.20;;;;;;5053101;28;20738;-69
2021/04/18 11:20:52;;;;;;;16.03;8.53;;;11.70;99.10;;;;;;5071630;28;20426;-70
2021/04/18 11:23:18;;;;;;;13.18;8.35;;;11.60;99.90;;;;;;5070817;28;20400;-69
2021/04/18 11:25:43;;;;;;;12.30;8.15;;;11.60;99.90;;;;;;5070868;28;20415;-68
2021/04/18 11:28:09;;;;;;;13.67;8.00;;;11.70;99.80;;;;;;5071296;28;20403;-67
2021/04/18 11:30:36;;;;;;;12.93;8.10;;;11.60;99.70;;;;;;5070135;28;20820;-62
2021/04/18 11:33:02;;;;;;;15.90;9.23;;;11.80;99.70;;;;;;5053652;28;20407;-64
2021/04/18 11:35:28;;;;;;;12.00;7.93;;;11.80;99.60;;;;;;5053343;28;20471;-69
2021/04/18 11:37:56;;;;;;;13.10;7.85;;;12.00;99.20;;;;;;5071442;28;20379;-70
2021/04/18 11:40:26;;;;;;;14.43;8.63;;;12.00;99.40;;;;;;5069765;28;20428;-70
2021/04/18 11:42:54;;;;;;;13.30;8.10;;;12.10;99.50;;;;;;5068320;28;20944;-67
2021/04/18 11:45:20;;;;;;;16.88;8.70;;;12.20;99.10;;;;;;5071687;28;20380;-69
2021/04/18 11:47:47;;;;;;;13.73;7.82;;;12.40;98.90;;;;;;5071546;28;20415;-70
2021/04/18 11:50:14;;;;;;;13.15;7.85;;;12.80;97.80;;;;;;5052636;28;20846;-69
2021/04/18 11:52:40;;;;;;;12.30;7.28;;;12.70;97.50;;;;;;5052662;28;20420;-69
2021/04/18 11:55:10;;;;;;;13.17;8.23;;;12.70;98.00;;;;;;5035519;28;20899;-70
2021/04/18 11:57:36;;;;;;;14.83;8.40;;;12.90;97.50;;;;;;5054777;28;20383;-61
2021/04/18 12:00:06;;;;;;;13.50;8.20;;;12.10;97.00;;;;;;5070609;28;20372;-70
2021/04/18 12:02:33;;;;;;;13.75;8.75;;;12.50;98.20;;;;;;5052724;28;20436;-69
2021/04/18 12:04:58;;;;;;;14.45;8.43;;;12.60;98.30;;;;;;5070137;28;21288;-68
2021/04/18 12:07:24;;;;;;;13.03;8.37;;;12.90;97.50;;;;;;5071190;28;20383;-69
2021/04/18 12:09:50;;;;;;;13.88;8.32;;;13.00;97.30;;;;;;5069234;28;20387;-70
2021/04/18 12:12:16;;;;;;;13.50;7.87;;;13.00;97.40;;;;;;5072153;28;20410;-71
2021/04/18 12:14:42;;;;;;;13.00;7.80;;;13.30;96.80;;;;;;5052215;28;20892;-71
2021/04/18 12:17:07;;;;;;;14.20;8.20;;;13.40;96.60;;;;;;5069255;28;20452;-72
2021/04/18 12:19:33;;;;;;;12.90;7.90;;;13.70;96.30;;;;;;5070211;28;20396;-70
2021/04/18 12:22:01;;;;;;;18.98;8.90;;;13.90;95.90;;;;;;5070268;28;20384;-74
2021/04/18 12:24:27;;;;;;;14.88;8.25;;;14.00;95.20;;;;;;5071885;28;20380;-74
2021/04/18 12:26:53;;;;;;;15.13;8.17;;;14.40;94.50;;;;;;5069615;28;20934;-66
2021/04/18 12:29:20;;;;;;;12.82;7.75;;;14.00;94.40;;;;;;5071041;28;20387;-75
2021/04/18 12:31:45;;;;;;;14.70;8.07;;;13.90;94.70;;;;;;5070613;28;20529;-73
2021/04/18 12:34:11;;;;;;;12.05;8.02;;;13.90;94.20;;;;;;5069511;28;20494;-74
2021/04/18 12:36:37;;;;;;;12.60;7.70;;;13.90;94.20;;;;;;5053258;28;20511;-64
2021/04/18 12:39:07;;;;;;;12.80;7.57;;;13.80;94.60;;;;;;5071251;28;20380;-73
2021/04/18 12:41:34;;;;;;;14.93;7.70;;;13.70;94.20;;;;;;5071996;28;20883;-70
2021/04/18 12:44:01;;;;;;;14.23;7.43;;;13.50;94.90;;;;;;5069956;28;20400;-74
2021/04/18 12:46:27;;;;;;;13.00;7.10;;;13.70;94.60;;;;;;5071034;28;20383;-70